Time;durP1;ratioP1;P1;durP2;ratioP2;P2;SDS_P1;SDS_P2;PMS_P1;PMS_P2;Temp;Humidity;BMP_temperature;BMP_pressure;BME280_temperature;BME280_humidity;BME280_pressure;Samples;Min_cycle;Max_cycle;Signal;HPM_P1;HPM_P2
2021/03/18 00:02:16;;;;;;;5.70;3.15;;;16.40;57.20;;;;;;5073339;28;20041;-65
2021/03/18 00:04:42;;;;;;;7.53;3.03;;;16.40;57.20;;;;;;5073913;28;20032;-65
2021/03/18 00:07:08;;;;;;;6.78;3.22;;;16.40;57.20;;;;;;5074083;28;20109;-66
2021/03/18 00:09:34;;;;;;;6.65;2.95;;;16.40;57.20;;;;;;5074516;28;20028;-65
2021/03/18 00:12:00;;;;;;;6.88;3.22;;;16.40;57.30;;;;;;5074043;28;20103;-64
2021/03/18 00:14:26;;;;;;;6.85;3.28;;;16.40;57.20;;;;;;5074047;28;20117;-65
2021/03/18 00:16:52;;;;;;;6.10;2.63;;;16.30;57.30;;;;;;5073544;28;20133;-64
2021/03/18 00:19:19;;;;;;;6.53;2.78;;;16.30;57.40;;;;;;5071807;28;20480;-65
2021/03/18 00:21:45;;;;;;;5.63;2.80;;;16.30;57.20;;;;;;5065024;28;20111;-64
2021/03/18 00:24:17;;;;;;;6.03;2.92;;;16.30;57.00;;;;;;5073992;28;20044;-64
2021/03/18 00:26:43;;;;;;;6.50;2.97;;;16.40;56.90;;;;;;5073231;28;20427;-64
2021/03/18 00:29:09;;;;;;;7.38;2.90;;;16.40;56.90;;;;;;5074016;28;20024;-64
2021/03/18 00:31:35;;;;;;;7.50;3.38;;;16.40;56.90;;;;;;5073176;28;20501;-65
2021/03/18 00:34:02;;;;;;;6.15;2.80;;;16.40;56.90;;;;;;5074178;28;20020;-64
2021/03/18 00:36:28;;;;;;;7.95;2.90;;;16.30;56.80;;;;;;5073070;28;20387;-65
2021/03/18 00:38:55;;;;;;;4.95;2.90;;;16.30;56.80;;;;;;5074030;28;20574;-64
2021/03/18 00:41:20;;;;;;;6.47;3.00;;;16.30;56.80;;;;;;5073241;28;20032;-64
2021/03/18 00:43:46;;;;;;;5.90;2.90;;;16.30;56.90;;;;;;5073780;28;20410;-64
2021/03/18 00:46:12;;;;;;;7.38;2.92;;;16.30;57.40;;;;;;5073154;28;20099;-65
2021/03/18 00:48:38;;;;;;;7.15;2.60;;;16.20;56.90;;;;;;5072426;28;20369;-65
2021/03/18 00:51:12;;;;;;;6.45;3.20;;;16.20;56.90;;;;;;5072942;28;20028;-65
2021/03/18 00:53:43;;;;;;;6.90;2.85;;;16.20;57.00;;;;;;5072445;28;20142;-65
2021/03/18 00:56:16;;;;;;;5.28;2.97;;;16.20;57.00;;;;;;5073003;28;20433;-64
2021/03/18 00:58:43;;;;;;;9.45;3.00;;;16.20;57.10;;;;;;5073211;28;20040;-65
2021/03/18 01:01:12;;;;;;;8.18;3.03;;;16.10;57.00;;;;;;5073002;28;20148;-65
2021/03/18 01:03:40;;;;;;;5.60;2.83;;;16.20;57.00;;;;;;5073194;28;20020;-65
2021/03/18 01:06:06;;;;;;;5.60;2.58;;;16.10;57.00;;;;;;5072699;28;20027;-65
2021/03/18 01:08:33;;;;;;;5.70;2.88;;;16.10;57.00;;;;;;5073309;28;20025;-65
2021/03/18 01:11:06;;;;;;;6.88;2.83;;;16.10;57.00;;;;;;5071267;28;20048;-66
2021/03/18 01:13:33;;;;;;;5.65;2.80;;;16.10;57.00;;;;;;5071409;28;20032;-66
2021/03/18 01:16:33;;;;;;;8.75;3.03;;;16.10;57.00;;;;;;5071163;28;20031;-65
2021/03/18 01:19:01;;;;;;;6.10;2.55;;;16.10;57.10;;;;;;5063061;28;20040;-66
2021/03/18 01:21:33;;;;;;;5.25;2.70;;;16.10;57.10;;;;;;5072574;28;20079;-66
2021/03/18 01:24:00;;;;;;;7.18;3.10;;;16.10;57.10;;;;;;5072397;28;20024;-65
2021/03/18 01:26:26;;;;;;;6.10;2.72;;;16.10;57.10;;;;;;5072220;28;20028;-65
2021/03/18 01:28:52;;;;;;;7.90;2.80;;;16.10;57.70;;;;;;5072969;28;20078;-64
2021/03/18 01:31:18;;;;;;;5.22;2.53;;;16.00;57.10;;;;;;5072775;28;20032;-65
2021/03/18 01:33:44;;;;;;;5.72;2.65;;;16.00;57.10;;;;;;5073024;28;20130;-65
2021/03/18 01:36:12;;;;;;;5.70;2.88;;;16.00;57.20;;;;;;5070777;28;20028;-66
2021/03/18 01:38:46;;;;;;;5.95;2.75;;;16.00;57.10;;;;;;5072454;28;20028;-66
2021/03/18 01:41:13;;;;;;;6.28;2.88;;;16.00;57.10;;;;;;5072497;28;20456;-65
2021/03/18 01:43:41;;;;;;;7.43;3.22;;;16.00;57.20;;;;;;5072807;28;20107;-66
2021/03/18 01:46:06;;;;;;;5.40;2.90;;;15.90;57.10;;;;;;5071371;28;20502;-64
2021/03/18 01:48:33;;;;;;;7.07;3.15;;;15.90;57.20;;;;;;5072980;28;20025;-65
2021/03/18 01:51:00;;;;;;;6.75;3.40;;;15.90;57.10;;;;;;5072862;28;20028;-65
2021/03/18 01:53:26;;;;;;;4.88;2.75;;;15.90;57.30;;;;;;5072818;28;20479;-65
2021/03/18 01:55:54;;;;;;;6.10;3.10;;;15.90;57.20;;;;;;5072646;28;20445;-64
2021/03/18 01:58:21;;;;;;;5.95;2.90;;;15.90;57.20;;;;;;5072679;28;20028;-65
2021/03/18 02:00:49;;;;;;;5.95;3.10;;;15.90;57.20;;;;;;5072591;28;20037;-64
2021/03/18 02:03:15;;;;;;;7.38;3.10;;;15.90;57.20;;;;;;5072943;28;20345;-65
2021/03/18 02:05:43;;;;;;;6.22;3.00;;;15.90;57.10;;;;;;5072847;28;20036;-65
2021/03/18 02:08:09;;;;;;;7.13;3.28;;;15.90;57.10;;;;;;5071287;28;20510;-64
2021/03/18 02:10:37;;;;;;;7.53;3.40;;;15.80;57.20;;;;;;5072533;28;20212;-65
2021/03/18 02:13:04;;;;;;;6.07;3.20;;;15.90;57.00;;;;;;5072800;28;20278;-65
2021/03/18 02:15:36;;;;;;;6.00;3.03;;;15.80;57.20;;;;;;5072900;28;20034;-65
2021/03/18 02:18:39;;;;;;;7.72;3.28;;;15.80;57.10;;;;;;5072501;28;20479;-65
2021/03/18 02:21:23;;;;;;;6.35;3.22;;;15.80;57.20;;;;;;5030401;28;20044;-65
2021/03/18 02:24:16;;;;;;;5.93;3.05;;;15.80;57.10;;;;;;5073724;28;20505;-65
2021/03/18 02:27:12;;;;;;;6.53;3.60;;;15.80;57.10;;;;;;5076479;28;20025;-66
2021/03/18 02:29:59;;;;;;;9.30;3.30;;;15.80;57.20;;;;;;5076359;28;20027;-65
2021/03/18 02:33:03;;;;;;;6.35;3.40;;;15.80;57.10;;;;;;5075004;28;20419;-66
2021/03/18 02:35:33;;;;;;;5.35;3.00;;;15.80;57.20;;;;;;5076637;28;20048;-66
2021/03/18 02:38:11;;;;;;;7.65;3.60;;;15.70;57.00;;;;;;5076184;28;20074;-66
2021/03/18 02:40:41;;;;;;;7.68;3.45;;;15.70;57.10;;;;;;5076083;28;20020;-66
2021/03/18 02:43:13;;;;;;;7.32;3.30;;;15.70;57.00;;;;;;5076084;28;20032;-66
2021/03/18 02:45:54;;;;;;;6.57;3.40;;;15.70;57.00;;;;;;5076005;28;20038;-65
2021/03/18 02:48:26;;;;;;;6.65;3.72;;;15.70;56.90;;;;;;5076045;28;20028;-65
2021/03/18 02:50:52;;;;;;;8.00;3.60;;;15.70;56.90;;;;;;5075713;28;20086;-65
2021/03/18 02:53:19;;;;;;;7.07;3.78;;;15.70;56.90;;;;;;5075837;28;20103;-66
2021/03/18 02:55:50;;;;;;;7.07;3.65;;;15.70;56.90;;;;;;5075762;28;20035;-65
2021/03/18 02:58:20;;;;;;;6.57;3.67;;;15.70;56.90;;;;;;5076026;28;20444;-65
2021/03/18 03:00:48;;;;;;;7.15;3.60;;;15.70;57.00;;;;;;5075465;28;20123;-66
2021/03/18 03:03:16;;;;;;;6.90;3.75;;;15.60;56.80;;;;;;5074387;28;20082;-65
2021/03/18 03:05:47;;;;;;;7.00;3.85;;;15.60;56.90;;;;;;5074257;28;20024;-65
2021/03/18 03:08:14;;;;;;;7.70;4.03;;;15.60;56.80;;;;;;5075933;28;20017;-65
2021/03/18 03:10:40;;;;;;;5.93;3.42;;;15.60;56.80;;;;;;5075864;28;20032;-65
2021/03/18 03:13:08;;;;;;;5.78;3.65;;;15.60;56.90;;;;;;5075663;28;20029;-65
2021/03/18 03:15:34;;;;;;;5.78;3.50;;;15.60;56.90;;;;;;5075728;28;20119;-65
2021/03/18 03:18:04;;;;;;;8.13;3.60;;;15.60;56.90;;;;;;5075447;28;20151;-65
2021/03/18 03:20:30;;;;;;;6.20;3.80;;;15.60;57.00;;;;;;5075205;28;20024;-65
2021/03/18 03:22:58;;;;;;;6.97;3.75;;;15.60;56.90;;;;;;5074060;28;20115;-65
2021/03/18 03:25:25;;;;;;;6.82;3.65;;;15.60;56.90;;;;;;5074133;28;20032;-65
2021/03/18 03:27:51;;;;;;;6.45;3.80;;;15.60;56.90;;;;;;5075195;28;20379;-65
2021/03/18 03:30:18;;;;;;;5.70;3.47;;;15.60;56.90;;;;;;5074847;28;20177;-65
2021/03/18 03:32:45;;;;;;;6.32;3.50;;;15.60;56.90;;;;;;5073842;28;20055;-64
2021/03/18 03:35:12;;;;;;;8.00;3.75;;;15.50;56.90;;;;;;5074942;28;20497;-65
2021/03/18 03:37:40;;;;;;;7.47;3.65;;;15.50;57.00;;;;;;5073383;28;20035;-65
2021/03/18 03:40:08;;;;;;;7.72;3.88;;;15.50;56.90;;;;;;5075453;28;20029;-65
2021/03/18 03:42:36;;;;;;;6.47;3.92;;;15.50;57.00;;;;;;5074741;28;20033;-65
2021/03/18 03:45:06;;;;;;;7.43;4.15;;;15.50;56.90;;;;;;5074932;28;20105;-65
2021/03/18 03:47:32;;;;;;;6.68;3.80;;;15.50;56.90;;;;;;5056037;28;20087;-65
2021/03/18 03:49:58;;;;;;;6.07;3.90;;;15.50;56.90;;;;;;5075347;28;20024;-66
2021/03/18 03:52:26;;;;;;;6.60;4.10;;;15.50;57.00;;;;;;5073848;28;20483;-65
2021/03/18 03:55:20;;;;;;;7.25;4.28;;;15.40;56.90;;;;;;5074515;28;20032;-65
2021/03/18 03:58:05;;;;;;;7.88;3.85;;;15.40;56.90;;;;;;5054293;28;20044;-64
2021/03/18 04:00:32;;;;;;;7.47;3.72;;;15.40;57.00;;;;;;5064406;28;20064;-65
2021/03/18 04:03:02;;;;;;;6.50;3.90;;;15.40;57.00;;;;;;5074016;28;20070;-65
2021/03/18 04:05:29;;;;;;;6.32;4.03;;;15.50;57.00;;;;;;5074069;28;20028;-65
2021/03/18 04:08:00;;;;;;;7.15;3.90;;;15.40;56.90;;;;;;5074287;28;20078;-65
2021/03/18 04:10:28;;;;;;;7.43;4.10;;;15.40;56.90;;;;;;5074147;28;20483;-65
2021/03/18 04:12:57;;;;;;;7.72;4.35;;;15.40;56.90;;;;;;5074435;28;20032;-65
2021/03/18 04:15:25;;;;;;;6.85;3.80;;;15.40;56.80;;;;;;5073947;28;20039;-65
2021/03/18 04:17:53;;;;;;;6.28;3.60;;;15.40;56.90;;;;;;5073987;28;20176;-65
2021/03/18 04:20:22;;;;;;;7.20;3.97;;;15.40;57.00;;;;;;5073664;28;20031;-65
2021/03/18 04:22:55;;;;;;;7.18;3.72;;;15.40;56.90;;;;;;5072261;28;20077;-65
2021/03/18 04:25:23;;;;;;;8.10;3.70;;;15.40;56.90;;;;;;5072130;28;20399;-65
2021/03/18 04:27:51;;;;;;;7.00;3.80;;;15.30;56.80;;;;;;5072650;28;20455;-65
2021/03/18 04:30:19;;;;;;;8.25;3.75;;;15.30;56.80;;;;;;5073258;28;20020;-65
2021/03/18 04:32:47;;;;;;;5.90;3.58;;;15.30;56.90;;;;;;5074016;28;20099;-65
2021/03/18 04:35:13;;;;;;;7.43;3.92;;;15.30;56.90;;;;;;5073300;28;20426;-64
2021/03/18 04:37:40;;;;;;;7.50;4.10;;;15.30;56.90;;;;;;5072931;28;20032;-65
2021/03/18 04:40:08;;;;;;;7.88;3.78;;;15.30;57.50;;;;;;5073924;28;20054;-65
2021/03/18 04:42:35;;;;;;;6.35;3.60;;;15.30;56.90;;;;;;5073190;28;20017;-65
2021/03/18 04:45:04;;;;;;;6.18;3.65;;;15.30;56.90;;;;;;5072743;28;20482;-65
2021/03/18 04:47:31;;;;;;;6.40;3.78;;;15.30;57.00;;;;;;5073585;28;20064;-65
2021/03/18 04:49:57;;;;;;;7.85;4.05;;;15.20;57.00;;;;;;5073609;28;20077;-65
2021/03/18 04:52:23;;;;;;;7.53;3.92;;;15.20;56.90;;;;;;5073086;28;20059;-65
2021/03/18 04:54:49;;;;;;;6.80;3.95;;;15.20;56.80;;;;;;5073119;28;20027;-65
2021/03/18 04:57:21;;;;;;;7.88;3.67;;;15.20;56.90;;;;;;5073473;28;20028;-65
2021/03/18 04:59:49;;;;;;;6.40;3.50;;;15.20;56.90;;;;;;5072801;28;20074;-64
2021/03/18 05:02:16;;;;;;;7.18;3.88;;;15.20;57.40;;;;;;5072783;28;20097;-65
2021/03/18 05:04:43;;;;;;;6.00;3.85;;;15.20;56.80;;;;;;5073342;28;20025;-65
2021/03/18 05:07:12;;;;;;;6.95;3.92;;;15.20;56.80;;;;;;5072766;28;20032;-64
2021/03/18 05:09:39;;;;;;;6.78;3.83;;;15.20;56.80;;;;;;5072946;28;20020;-65
2021/03/18 05:12:07;;;;;;;6.30;4.03;;;15.30;56.90;;;;;;5073186;28;20406;-65
2021/03/18 05:14:34;;;;;;;9.63;4.20;;;15.20;56.80;;;;;;5071526;28;20124;-65
2021/03/18 05:17:00;;;;;;;6.20;3.78;;;15.20;56.80;;;;;;5071182;28;20028;-65
2021/03/18 05:19:26;;;;;;;11.43;4.00;;;15.20;56.80;;;;;;5073481;28;20137;-64
2021/03/18 05:21:53;;;;;;;6.88;3.78;;;15.20;56.90;;;;;;5072605;28;20036;-64
2021/03/18 05:24:19;;;;;;;8.82;4.15;;;15.20;56.90;;;;;;5072600;28;20013;-65
2021/03/18 05:26:45;;;;;;;7.47;3.97;;;15.10;57.00;;;;;;5072720;28;20025;-65
2021/03/18 05:29:14;;;;;;;6.63;3.42;;;15.10;57.10;;;;;;5072077;28;20025;-64
2021/03/18 05:31:42;;;;;;;6.88;3.50;;;15.10;57.10;;;;;;5063392;28;20054;-64
2021/03/18 05:34:08;;;;;;;6.32;3.63;;;15.10;57.00;;;;;;5071496;28;20032;-64
2021/03/18 05:36:34;;;;;;;7.38;3.70;;;15.20;57.10;;;;;;5072047;28;20113;-63
2021/03/18 05:39:00;;;;;;;7.55;4.03;;;15.20;57.10;;;;;;5071336;28;20085;-65
2021/03/18 05:41:26;;;;;;;6.45;4.05;;;15.10;57.00;;;;;;5071887;28;20033;-64
2021/03/18 05:43:53;;;;;;;14.95;4.68;;;15.20;56.90;;;;;;5071979;28;20028;-65
2021/03/18 05:46:19;;;;;;;12.77;4.38;;;15.20;57.40;;;;;;5072260;28;20470;-72
2021/03/18 05:48:45;;;;;;;12.25;4.40;;;15.20;57.20;;;;;;5071165;28;20025;-64
2021/03/18 05:51:16;;;;;;;22.80;9.85;;;15.20;57.60;;;;;;5072272;28;20029;-69
2021/03/18 05:53:47;;;;;;;38.97;15.63;;;15.20;57.80;;;;;;5072455;28;20028;-69
2021/03/18 05:56:15;;;;;;;24.10;10.05;;;15.30;58.80;;;;;;5072239;28;20036;-67
2021/03/18 05:58:42;;;;;;;21.48;9.23;;;15.30;58.10;;;;;;5069315;28;20059;-66
2021/03/18 06:01:09;;;;;;;18.83;9.45;;;15.30;57.90;;;;;;5053169;28;20443;-66
2021/03/18 06:03:35;;;;;;;16.10;10.50;;;15.30;57.80;;;;;;5070651;28;20468;-65
2021/03/18 06:06:02;;;;;;;22.45;10.65;;;15.30;57.80;;;;;;5072450;28;20037;-67
2021/03/18 06:08:28;;;;;;;17.35;10.95;;;15.30;57.80;;;;;;5072006;28;20052;-65
2021/03/18 06:10:56;;;;;;;22.27;10.70;;;15.40;58.20;;;;;;5072020;28;20032;-64
2021/03/18 06:13:22;;;;;;;14.50;9.82;;;15.50;57.40;;;;;;5071912;28;20152;-66
2021/03/18 06:15:48;;;;;;;15.07;9.18;;;15.60;57.40;;;;;;5072323;28;20179;-66
2021/03/18 06:18:15;;;;;;;12.13;9.13;;;15.60;57.20;;;;;;5072050;28;20476;-66
2021/03/18 06:20:49;;;;;;;15.95;9.30;;;15.60;57.00;;;;;;5071841;28;20037;-66
2021/03/18 06:23:14;;;;;;;19.73;8.80;;;15.60;56.90;;;;;;5072471;28;20074;-70
2021/03/18 06:25:40;;;;;;;16.52;8.07;;;15.70;56.70;;;;;;5072529;28;20096;-66
2021/03/18 06:28:27;;;;;;;11.10;8.05;;;15.70;56.90;;;;;;5072935;28;20035;-66
2021/03/18 06:31:15;;;;;;;38.25;29.63;;;15.70;56.90;;;;;;5072801;28;20173;-64
2021/03/18 06:33:44;;;;;;;23.08;14.73;;;15.70;56.80;;;;;;5070667;28;20110;-67
2021/03/18 06:36:33;;;;;;;19.20;11.73;;;15.70;56.60;;;;;;5053125;28;20414;-67
2021/03/18 06:39:09;;;;;;;13.57;9.15;;;15.80;56.60;;;;;;5070666;28;20104;-68
2021/03/18 06:41:40;;;;;;;19.30;9.43;;;15.80;56.20;;;;;;5070594;28;20032;-70
2021/03/18 06:44:17;;;;;;;18.07;9.07;;;15.90;56.30;;;;;;5063072;28;20464;-69
2021/03/18 06:46:43;;;;;;;17.35;8.80;;;15.80;56.20;;;;;;5071846;28;20043;-69
2021/03/18 06:49:11;;;;;;;17.77;8.88;;;15.90;56.30;;;;;;5071783;28;20043;-68
2021/03/18 06:51:38;;;;;;;13.02;8.30;;;15.80;56.40;;;;;;5070370;28;20021;-67
2021/03/18 06:54:18;;;;;;;11.82;8.27;;;15.80;56.60;;;;;;5071599;28;20036;-68
2021/03/18 06:56:53;;;;;;;14.07;7.85;;;15.90;56.70;;;;;;5071921;28;20028;-68
2021/03/18 06:59:24;;;;;;;11.88;7.80;;;15.90;56.80;;;;;;5071943;28;20094;-75
2021/03/18 07:02:10;;;;;;;;;;;15.90;56.70;;;;;;5068086;28;20085;-68
2021/03/18 07:04:41;;;;;;;21.83;16.00;;;15.80;56.70;;;;;;5069488;28;19938;-69
2021/03/18 07:07:08;;;;;;;14.85;11.60;;;15.80;56.50;;;;;;5071732;28;20024;-69
2021/03/18 07:09:35;;;;;;;15.02;10.32;;;15.80;56.50;;;;;;5074692;28;20013;-69
2021/03/18 07:12:12;;;;;;;14.10;9.27;;;15.80;56.40;;;;;;5074869;28;20038;-68
2021/03/18 07:14:47;;;;;;;13.75;9.07;;;15.90;56.30;;;;;;5075448;28;20577;-69
2021/03/18 07:17:32;;;;;;;12.40;8.57;;;15.90;56.10;;;;;;5074270;28;20032;-69
2021/03/18 07:20:22;;;;;;;13.35;9.02;;;15.90;56.10;;;;;;5082679;28;20035;-69
2021/03/18 07:22:47;;;;;;;12.75;8.02;;;15.90;56.40;;;;;;5067407;28;20364;-68
2021/03/18 07:25:15;;;;;;;13.35;8.00;;;16.00;56.40;;;;;;5075581;28;20063;-67
2021/03/18 07:27:46;;;;;;;14.15;8.15;;;16.00;56.30;;;;;;5074313;28;20050;-69
2021/03/18 07:30:35;;;;;;;15.98;8.07;;;16.10;56.30;;;;;;5074985;28;20025;-67
2021/03/18 07:33:04;;;;;;;13.50;8.05;;;16.10;56.20;;;;;;5074056;28;20055;-69
2021/03/18 07:35:31;;;;;;;14.35;7.07;;;16.10;56.40;;;;;;5074678;28;20055;-68
2021/03/18 07:37:58;;;;;;;17.23;9.25;;;16.10;56.50;;;;;;5074741;28;20051;-68
2021/03/18 07:40:26;;;;;;;74.45;23.48;;;16.20;56.50;;;;;;5074337;28;20039;-68
2021/03/18 07:42:53;;;;;;;98.15;32.20;;;16.20;57.00;;;;;;5074328;28;20021;-68
2021/03/18 07:45:21;;;;;;;145.05;47.28;;;16.20;57.60;;;;;;5074799;28;20017;-67
2021/03/18 07:47:48;;;;;;;134.43;46.83;;;16.20;58.20;;;;;;5074285;28;20102;-66
2021/03/18 07:50:17;;;;;;;94.15;35.30;;;16.30;57.90;;;;;;5074186;28;20025;-66
2021/03/18 07:52:46;;;;;;;100.03;37.72;;;16.30;57.40;;;;;;5068140;28;20058;-65
2021/03/18 07:55:15;;;;;;;99.55;37.78;;;16.30;57.80;;;;;;5073370;28;20021;-67
2021/03/18 07:57:49;;;;;;;90.05;36.25;;;16.30;57.70;;;;;;5073555;28;20106;-67
2021/03/18 08:00:22;;;;;;;86.85;32.78;;;16.40;57.60;;;;;;5070937;28;20115;-66
2021/03/18 08:02:48;;;;;;;90.32;32.60;;;16.30;57.60;;;;;;5074162;28;20045;-67
2021/03/18 08:05:40;;;;;;;84.00;30.38;;;16.20;57.50;;;;;;5073629;28;20034;-66
2021/03/18 08:08:07;;;;;;;73.35;29.17;;;16.20;57.50;;;;;;5073770;28;20489;-65
2021/03/18 08:10:32;;;;;;;66.80;27.17;;;16.20;57.60;;;;;;5073624;28;20020;-66
2021/03/18 08:13:03;;;;;;;63.38;25.90;;;16.20;57.50;;;;;;5074001;28;20123;-67
2021/03/18 08:15:38;;;;;;;61.28;24.25;;;16.20;57.30;;;;;;5073697;28;20020;-66
2021/03/18 08:18:13;;;;;;;58.80;24.85;;;16.20;57.20;;;;;;5073132;28;20025;-67
2021/03/18 08:20:42;;;;;;;56.42;22.75;;;16.20;57.20;;;;;;5059899;28;20107;-67
2021/03/18 08:23:22;;;;;;;49.53;21.55;;;16.20;57.10;;;;;;5073183;28;20017;-67
2021/03/18 08:25:58;;;;;;;54.05;22.10;;;16.20;57.10;;;;;;5073383;28;20017;-66
2021/03/18 08:28:47;;;;;;;46.80;19.65;;;16.20;57.10;;;;;;5073661;28;20044;-66
2021/03/18 08:31:16;;;;;;;45.78;19.83;;;16.20;57.00;;;;;;5072769;28;20032;-66
2021/03/18 08:33:56;;;;;;;45.40;19.30;;;16.10;57.00;;;;;;5072018;28;20033;-66
2021/03/18 08:36:28;;;;;;;46.28;18.58;;;16.10;57.00;;;;;;5073127;28;20029;-66
2021/03/18 08:39:03;;;;;;;37.05;16.58;;;16.10;57.00;;;;;;5073823;28;20526;-66
2021/03/18 08:41:41;;;;;;;40.83;17.13;;;16.10;57.10;;;;;;5073019;28;20341;-67
2021/03/18 08:44:19;;;;;;;36.78;15.90;;;16.00;57.00;;;;;;5072741;28;20021;-66
2021/03/18 08:47:03;;;;;;;32.70;16.02;;;16.00;57.10;;;;;;5072631;28;20100;-66
2021/03/18 08:49:33;;;;;;;32.97;14.07;;;16.00;57.00;;;;;;5066268;28;20383;-66
2021/03/18 08:52:05;;;;;;;27.40;13.43;;;16.00;57.00;;;;;;5071555;28;20471;-66
2021/03/18 08:54:40;;;;;;;;;;;16.00;57.00;;;;;;5072784;28;20032;-66
2021/03/18 08:57:11;;;;;;;26.25;12.77;;;16.00;57.00;;;;;;5072947;28;19905;-67
2021/03/18 08:59:39;;;;;;;32.80;13.60;;;15.90;56.90;;;;;;5073088;28;20351;-66
2021/03/18 09:02:07;;;;;;;28.02;13.02;;;15.90;56.90;;;;;;5072845;28;20040;-66
2021/03/18 09:04:44;;;;;;;24.83;12.10;;;15.90;56.80;;;;;;5072921;28;20065;-67
2021/03/18 09:07:16;;;;;;;26.33;12.15;;;15.90;57.00;;;;;;5071389;28;20024;-66
2021/03/18 09:09:42;;;;;;;25.25;11.43;;;15.90;56.80;;;;;;5064518;28;20055;-67
2021/03/18 09:12:09;;;;;;;20.65;10.52;;;15.90;56.90;;;;;;5066525;28;20384;-67
2021/03/18 09:14:39;;;;;;;23.00;11.07;;;15.90;56.90;;;;;;5072694;28;20025;-67
2021/03/18 09:17:10;;;;;;;20.92;11.02;;;15.90;57.00;;;;;;5069374;28;20175;-66
2021/03/18 09:19:37;;;;;;;21.00;10.82;;;15.80;57.10;;;;;;5067087;28;20023;-67
2021/03/18 09:22:03;;;;;;;22.30;10.07;;;15.80;56.90;;;;;;5072228;28;20021;-67
2021/03/18 09:24:47;;;;;;;17.58;9.70;;;15.80;56.90;;;;;;5072575;28;20521;-65
2021/03/18 09:27:14;;;;;;;19.38;9.65;;;15.80;56.90;;;;;;5072394;28;20036;-65
2021/03/18 09:29:42;;;;;;;20.33;9.68;;;15.80;56.90;;;;;;5070062;28;20494;-67
2021/03/18 09:32:11;;;;;;;18.63;9.35;;;15.80;56.80;;;;;;5070786;28;20032;-66
2021/03/18 09:34:39;;;;;;;17.30;8.88;;;15.80;56.80;;;;;;5070907;28;20038;-67
2021/03/18 09:37:06;;;;;;;18.90;8.90;;;15.80;56.60;;;;;;5071737;28;20104;-67
2021/03/18 09:39:32;;;;;;;19.52;9.73;;;15.80;56.50;;;;;;5071160;28;20032;-67
2021/03/18 09:42:06;;;;;;;16.35;8.23;;;15.80;56.50;;;;;;5072370;28;20028;-67
2021/03/18 09:44:33;;;;;;;15.48;8.25;;;15.80;56.30;;;;;;5072469;28;20035;-66
2021/03/18 09:47:05;;;;;;;17.38;8.45;;;15.80;56.20;;;;;;5077973;28;20047;-66
2021/03/18 09:49:39;;;;;;;16.85;9.00;;;15.80;56.20;;;;;;5079141;28;20103;-66
2021/03/18 09:52:04;;;;;;;17.88;8.13;;;15.70;56.20;;;;;;5069458;28;20039;-66
2021/03/18 09:54:31;;;;;;;17.33;8.45;;;15.80;56.60;;;;;;5092768;28;20020;-66
2021/03/18 09:57:06;;;;;;;16.60;8.35;;;15.70;56.50;;;;;;5077077;28;20032;-66
2021/03/18 09:59:32;;;;;;;16.60;7.70;;;15.70;56.40;;;;;;5072664;28;20078;-66
2021/03/18 10:01:58;;;;;;;13.27;7.70;;;15.70;56.40;;;;;;5071218;28;20201;-65
2021/03/18 10:04:24;;;;;;;14.13;7.85;;;15.70;56.40;;;;;;5074559;28;20211;-66
2021/03/18 10:06:56;;;;;;;13.15;7.50;;;15.80;56.30;;;;;;5085012;28;20034;-66
2021/03/18 10:09:36;;;;;;;11.32;7.38;;;15.70;56.30;;;;;;5077281;28;20524;-66
2021/03/18 10:12:11;;;;;;;12.73;7.33;;;15.80;56.20;;;;;;5070881;28;20446;-66
2021/03/18 10:14:53;;;;;;;14.00;6.97;;;15.80;56.10;;;;;;5070649;28;20020;-66
2021/03/18 10:17:25;;;;;;;12.45;7.30;;;15.80;56.00;;;;;;5072437;28;20021;-66
2021/03/18 10:20:12;;;;;;;11.80;7.65;;;15.80;56.00;;;;;;5072394;28;20061;-66
2021/03/18 10:22:46;;;;;;;12.95;7.20;;;15.80;56.30;;;;;;5068511;28;20056;-66
2021/03/18 10:25:12;;;;;;;12.25;7.18;;;15.70;56.60;;;;;;5071754;28;20032;-66
2021/03/18 10:27:49;;;;;;;11.15;6.80;;;15.70;56.20;;;;;;5071285;28;20036;-66
2021/03/18 10:30:19;;;;;;;12.38;6.97;;;15.70;56.10;;;;;;5072211;28;20469;-66
2021/03/18 10:33:00;;;;;;;11.50;6.53;;;15.70;56.10;;;;;;5072282;28;20028;-66
2021/03/18 10:35:28;;;;;;;11.55;6.55;;;15.70;56.10;;;;;;5072154;28;20024;-66
2021/03/18 10:37:53;;;;;;;10.70;6.80;;;15.70;56.10;;;;;;5072259;28;20040;-66
2021/03/18 10:40:26;;;;;;;10.55;6.53;;;15.70;56.00;;;;;;5069958;28;20028;-69
2021/03/18 10:42:58;;;;;;;11.15;6.53;;;15.70;56.10;;;;;;5071132;28;20062;-70
2021/03/18 10:45:35;;;;;;;10.07;6.05;;;15.70;56.00;;;;;;5075437;28;20029;-66
2021/03/18 10:48:06;;;;;;;11.77;6.18;;;15.70;56.10;;;;;;5080059;28;20165;-69
2021/03/18 10:50:37;;;;;;;11.80;6.40;;;15.70;56.20;;;;;;5092491;28;20066;-67
2021/03/18 10:53:04;;;;;;;11.35;6.57;;;15.70;56.10;;;;;;5072933;28;20021;-67
2021/03/18 10:55:38;;;;;;;10.57;6.13;;;15.70;56.10;;;;;;5074121;28;20025;-67
2021/03/18 10:58:09;;;;;;;9.55;6.00;;;15.70;56.10;;;;;;5072177;28;20032;-68
2021/03/18 11:00:37;;;;;;;9.48;5.97;;;15.70;56.00;;;;;;5073316;28;20067;-68
2021/03/18 11:03:10;;;;;;;10.75;6.30;;;15.70;56.00;;;;;;5073391;28;20028;-68
2021/03/18 11:05:46;;;;;;;12.45;6.55;;;15.60;55.90;;;;;;5073850;28;20025;-69
2021/03/18 11:08:13;;;;;;;10.63;5.78;;;15.70;55.90;;;;;;5091524;28;20012;-68
2021/03/18 11:10:45;;;;;;;11.18;6.40;;;15.60;55.90;;;;;;5092858;28;20031;-66
2021/03/18 11:13:17;;;;;;;10.18;6.05;;;15.60;56.00;;;;;;5073547;28;20472;-68
2021/03/18 11:15:53;;;;;;;;;;;15.60;55.90;;;;;;5074987;28;20029;-68
2021/03/18 11:18:33;;;;;;;9.63;5.60;;;15.60;55.90;;;;;;5080647;28;19911;-68
2021/03/18 11:20:59;;;;;;;10.65;6.18;;;15.60;55.80;;;;;;5074202;28;20031;-67
2021/03/18 11:23:30;;;;;;;10.45;5.88;;;15.60;55.80;;;;;;5072402;28;20017;-66
2021/03/18 11:25:58;;;;;;;10.75;6.30;;;15.60;55.90;;;;;;5082064;28;20012;-67
2021/03/18 11:28:24;;;;;;;11.35;5.95;;;15.60;55.70;;;;;;5084373;28;20535;-66
2021/03/18 11:30:50;;;;;;;11.20;6.13;;;15.60;55.70;;;;;;5075191;28;20034;-67
2021/03/18 11:33:20;;;;;;;10.35;6.38;;;15.70;55.60;;;;;;5074447;28;20204;-66
2021/03/18 11:35:51;;;;;;;11.88;6.20;;;15.70;55.80;;;;;;5076742;28;20189;-66
2021/03/18 11:38:18;;;;;;;12.37;6.03;;;15.70;55.80;;;;;;5075191;28;20029;-66
2021/03/18 11:40:45;;;;;;;10.48;6.10;;;15.60;55.90;;;;;;5075538;28;20040;-67
2021/03/18 11:43:11;;;;;;;10.02;5.97;;;15.60;55.90;;;;;;5072643;28;20027;-66
2021/03/18 11:45:38;;;;;;;11.02;5.93;;;15.60;55.90;;;;;;5086735;28;20046;-66
2021/03/18 11:48:05;;;;;;;9.18;5.40;;;15.60;55.90;;;;;;5095297;28;20043;-67
2021/03/18 11:50:30;;;;;;;10.57;5.57;;;15.60;55.80;;;;;;5076623;28;20040;-67
2021/03/18 11:52:56;;;;;;;9.57;5.40;;;15.70;55.70;;;;;;5074874;28;20076;-67
2021/03/18 11:55:23;;;;;;;10.25;5.80;;;15.70;55.40;;;;;;5074614;28;20091;-67
2021/03/18 11:57:54;;;;;;;10.35;5.57;;;15.70;55.40;;;;;;5074805;28;20317;-67
2021/03/18 12:00:22;;;;;;;11.70;5.80;;;15.70;55.40;;;;;;5074194;28;20102;-66
2021/03/18 12:02:48;;;;;;;10.43;6.05;;;15.70;55.50;;;;;;5073298;28;20033;-66
2021/03/18 12:05:14;;;;;;;9.82;5.50;;;15.70;55.50;;;;;;5074490;28;20535;-66
2021/03/18 12:07:40;;;;;;;9.23;5.13;;;15.70;55.30;;;;;;5074021;28;20020;-66
2021/03/18 12:10:06;;;;;;;8.48;5.07;;;15.70;55.20;;;;;;5074452;28;20414;-67
2021/03/18 12:12:31;;;;;;;10.73;6.15;;;15.70;55.50;;;;;;5074485;28;20025;-67
2021/03/18 12:14:57;;;;;;;8.77;5.75;;;15.70;55.50;;;;;;5074454;28;20044;-67
2021/03/18 12:17:23;;;;;;;9.40;5.47;;;15.70;55.40;;;;;;5074347;28;20114;-67
2021/03/18 12:19:49;;;;;;;9.38;5.30;;;15.80;55.20;;;;;;5074412;28;20267;-66
2021/03/18 12:22:15;;;;;;;8.77;5.65;;;15.80;55.20;;;;;;5081473;28;20031;-66
2021/03/18 12:24:40;;;;;;;7.95;5.25;;;15.80;55.10;;;;;;5085237;28;20028;-66
2021/03/18 12:27:06;;;;;;;8.85;5.43;;;15.90;55.30;;;;;;5074219;28;20112;-66
2021/03/18 12:29:32;;;;;;;8.20;4.88;;;15.90;55.30;;;;;;5074400;28;20207;-67
2021/03/18 12:31:58;;;;;;;8.63;5.22;;;15.90;55.10;;;;;;5074113;28;20035;-66
2021/03/18 12:34:24;;;;;;;10.85;4.97;;;15.90;55.10;;;;;;5074028;28;20039;-66
2021/03/18 12:36:50;;;;;;;7.45;4.60;;;15.90;55.00;;;;;;5084514;28;20031;-66
2021/03/18 12:39:16;;;;;;;9.45;5.22;;;15.90;55.00;;;;;;5086716;28;20024;-66
2021/03/18 12:41:42;;;;;;;10.93;5.32;;;15.90;55.20;;;;;;5072092;28;20027;-66
2021/03/18 12:44:08;;;;;;;9.50;5.55;;;15.90;55.00;;;;;;5083036;28;20475;-66
2021/03/18 12:46:34;;;;;;;9.20;5.53;;;15.90;54.90;;;;;;5073999;28;20025;-67
2021/03/18 12:49:00;;;;;;;8.77;5.35;;;16.00;54.80;;;;;;5074021;28;20147;-67
2021/03/18 12:51:26;;;;;;;8.38;4.90;;;16.00;54.70;;;;;;5073698;28;20029;-67
2021/03/18 12:53:52;;;;;;;9.77;5.60;;;16.00;54.70;;;;;;5073680;28;20387;-67
2021/03/18 12:56:18;;;;;;;11.32;5.18;;;16.00;54.80;;;;;;5072262;28;20386;-68